sensor_id;sensor_type;location;lat;lon;timestamp;P1;durP1;ratioP1;P2;durP2;ratioP2
7231;SDS011;3657;49.630;11.018;2023-04-12T00:00:51;5.87;;;5.57;;
7231;SDS011;3657;49.630;11.018;2023-04-12T00:03:18;5.33;;;5.23;;
7231;SDS011;3657;49.630;11.018;2023-04-12T00:05:45;5.37;;;5.10;;
7231;SDS011;3657;49.630;11.018;2023-04-12T00:08:12;4.93;;;4.83;;
7231;SDS011;3657;49.630;11.018;2023-04-12T00:10:41;4.90;;;4.80;;
7231;SDS011;3657;49.630;11.018;2023-04-12T00:13:08;5.67;;;5.37;;
7231;SDS011;3657;49.630;11.018;2023-04-12T00:15:35;4.70;;;4.50;;
7231;SDS011;3657;49.630;11.018;2023-04-12T00:18:03;5.30;;;5.10;;
7231;SDS011;3657;49.630;11.018;2023-04-12T00:20:30;4.67;;;4.57;;
7231;SDS011;3657;49.630;11.018;2023-04-12T00:22:56;4.80;;;4.70;;
7231;SDS011;3657;49.630;11.018;2023-04-12T00:25:23;5.20;;;5.00;;
7231;SDS011;3657;49.630;11.018;2023-04-12T00:27:50;5.83;;;5.63;;
7231;SDS011;3657;49.630;11.018;2023-04-12T00:30:17;5.33;;;5.20;;
7231;SDS011;3657;49.630;11.018;2023-04-12T00:32:43;5.83;;;5.53;;
7231;SDS011;3657;49.630;11.018;2023-04-12T00:35:12;5.00;;;4.80;;
7231;SDS011;3657;49.630;11.018;2023-04-12T00:37:38;6.03;;;5.83;;
7231;SDS011;3657;49.630;11.018;2023-04-12T00:40:05;5.40;;;5.20;;
7231;SDS011;3657;49.630;11.018;2023-04-12T00:42:34;5.33;;;5.13;;
7231;SDS011;3657;49.630;11.018;2023-04-12T00:45:01;5.37;;;5.20;;
7231;SDS011;3657;49.630;11.018;2023-04-12T00:47:28;4.90;;;4.80;;
7231;SDS011;3657;49.630;11.018;2023-04-12T00:49:56;6.30;;;6.10;;
7231;SDS011;3657;49.630;11.018;2023-04-12T00:52:25;5.03;;;4.83;;
7231;SDS011;3657;49.630;11.018;2023-04-12T00:54:58;4.73;;;4.63;;
7231;SDS011;3657;49.630;11.018;2023-04-12T00:57:25;5.60;;;5.40;;
7231;SDS011;3657;49.630;11.018;2023-04-12T00:59:52;5.30;;;5.10;;
7231;SDS011;3657;49.630;11.018;2023-04-12T01:02:18;5.10;;;4.90;;
7231;SDS011;3657;49.630;11.018;2023-04-12T01:04:45;5.30;;;5.10;;
7231;SDS011;3657;49.630;11.018;2023-04-12T01:07:17;5.93;;;5.73;;
7231;SDS011;3657;49.630;11.018;2023-04-12T01:09:52;5.30;;;5.10;;
7231;SDS011;3657;49.630;11.018;2023-04-12T01:12:31;4.67;;;4.57;;
7231;SDS011;3657;49.630;11.018;2023-04-12T01:15:03;4.63;;;4.40;;
7231;SDS011;3657;49.630;11.018;2023-04-12T01:17:34;5.40;;;5.20;;
7231;SDS011;3657;49.630;11.018;2023-04-12T01:20:04;4.80;;;4.50;;
7231;SDS011;3657;49.630;11.018;2023-04-12T01:22:44;5.20;;;5.10;;
7231;SDS011;3657;49.630;11.018;2023-04-12T01:25:33;4.90;;;4.80;;
7231;SDS011;3657;49.630;11.018;2023-04-12T01:28:06;5.00;;;4.80;;
7231;SDS011;3657;49.630;11.018;2023-04-12T01:30:35;5.20;;;5.00;;
7231;SDS011;3657;49.630;11.018;2023-04-12T01:33:04;5.30;;;5.10;;
7231;SDS011;3657;49.630;11.018;2023-04-12T01:35:32;5.27;;;5.07;;
7231;SDS011;3657;49.630;11.018;2023-04-12T01:37:59;5.10;;;4.90;;
7231;SDS011;3657;49.630;11.018;2023-04-12T01:40:27;4.50;;;4.40;;
7231;SDS011;3657;49.630;11.018;2023-04-12T01:43:02;4.50;;;4.40;;
7231;SDS011;3657;49.630;11.018;2023-04-12T01:45:31;4.83;;;4.73;;
7231;SDS011;3657;49.630;11.018;2023-04-12T01:47:58;5.87;;;5.57;;
7231;SDS011;3657;49.630;11.018;2023-04-12T01:50:26;5.13;;;4.97;;
7231;SDS011;3657;49.630;11.018;2023-04-12T01:53:02;4.63;;;4.47;;
7231;SDS011;3657;49.630;11.018;2023-04-12T01:55:33;4.80;;;4.70;;
7231;SDS011;3657;49.630;11.018;2023-04-12T01:58:04;5.37;;;5.17;;
7231;SDS011;3657;49.630;11.018;2023-04-12T02:00:32;4.80;;;4.70;;
7231;SDS011;3657;49.630;11.018;2023-04-12T02:03:01;5.27;;;5.07;;
7231;SDS011;3657;49.630;11.018;2023-04-12T02:05:29;5.33;;;5.23;;
7231;SDS011;3657;49.630;11.018;2023-04-12T02:07:56;4.37;;;4.27;;
7231;SDS011;3657;49.630;11.018;2023-04-12T02:10:27;5.80;;;5.60;;
7231;SDS011;3657;49.630;11.018;2023-04-12T02:12:54;6.30;;;6.00;;
7231;SDS011;3657;49.630;11.018;2023-04-12T02:15:23;6.43;;;6.23;;
7231;SDS011;3657;49.630;11.018;2023-04-12T02:17:52;5.47;;;5.17;;
7231;SDS011;3657;49.630;11.018;2023-04-12T02:20:19;4.97;;;4.67;;
7231;SDS011;3657;49.630;11.018;2023-04-12T02:22:46;4.70;;;4.50;;
7231;SDS011;3657;49.630;11.018;2023-04-12T02:25:13;4.50;;;4.30;;
7231;SDS011;3657;49.630;11.018;2023-04-12T02:27:42;5.30;;;5.00;;
7231;SDS011;3657;49.630;11.018;2023-04-12T02:30:08;5.90;;;5.50;;
7231;SDS011;3657;49.630;11.018;2023-04-12T02:32:36;5.07;;;4.77;;
7231;SDS011;3657;49.630;11.018;2023-04-12T02:35:10;4.87;;;4.50;;
7231;SDS011;3657;49.630;11.018;2023-04-12T02:37:37;5.83;;;5.50;;
7231;SDS011;3657;49.630;11.018;2023-04-12T02:40:04;5.00;;;4.80;;
7231;SDS011;3657;49.630;11.018;2023-04-12T02:42:34;5.03;;;4.80;;
7231;SDS011;3657;49.630;11.018;2023-04-12T02:45:01;4.57;;;4.37;;
7231;SDS011;3657;49.630;11.018;2023-04-12T02:47:28;4.47;;;4.27;;
7231;SDS011;3657;49.630;11.018;2023-04-12T02:49:56;5.37;;;5.03;;
7231;SDS011;3657;49.630;11.018;2023-04-12T02:52:24;5.47;;;4.97;;
7231;SDS011;3657;49.630;11.018;2023-04-12T02:54:53;5.30;;;5.10;;
7231;SDS011;3657;49.630;11.018;2023-04-12T02:57:20;5.37;;;4.93;;
7231;SDS011;3657;49.630;11.018;2023-04-12T02:59:47;4.10;;;3.90;;
7231;SDS011;3657;49.630;11.018;2023-04-12T03:02:17;4.33;;;4.13;;
7231;SDS011;3657;49.630;11.018;2023-04-12T03:04:43;5.27;;;5.07;;
7231;SDS011;3657;49.630;11.018;2023-04-12T03:07:10;6.97;;;5.13;;
7231;SDS011;3657;49.630;11.018;2023-04-12T03:09:38;4.23;;;3.97;;
7231;SDS011;3657;49.630;11.018;2023-04-12T03:12:06;4.60;;;4.40;;
7231;SDS011;3657;49.630;11.018;2023-04-12T03:14:33;5.57;;;5.17;;
7231;SDS011;3657;49.630;11.018;2023-04-12T03:17:00;5.57;;;5.27;;
7231;SDS011;3657;49.630;11.018;2023-04-12T03:19:26;5.80;;;5.43;;
7231;SDS011;3657;49.630;11.018;2023-04-12T03:21:56;4.63;;;4.43;;
7231;SDS011;3657;49.630;11.018;2023-04-12T03:24:23;4.83;;;4.63;;
7231;SDS011;3657;49.630;11.018;2023-04-12T03:26:51;6.47;;;5.43;;
7231;SDS011;3657;49.630;11.018;2023-04-12T03:29:19;5.63;;;5.33;;
7231;SDS011;3657;49.630;11.018;2023-04-12T03:31:46;5.27;;;5.07;;
7231;SDS011;3657;49.630;11.018;2023-04-12T03:34:12;4.60;;;4.33;;
7231;SDS011;3657;49.630;11.018;2023-04-12T03:36:39;6.00;;;5.60;;
7231;SDS011;3657;49.630;11.018;2023-04-12T03:39:06;4.70;;;4.50;;
7231;SDS011;3657;49.630;11.018;2023-04-12T03:41:33;5.37;;;5.07;;
7231;SDS011;3657;49.630;11.018;2023-04-12T03:44:01;5.07;;;4.80;;
7231;SDS011;3657;49.630;11.018;2023-04-12T03:46:27;5.10;;;4.90;;
7231;SDS011;3657;49.630;11.018;2023-04-12T03:48:54;5.00;;;4.80;;
7231;SDS011;3657;49.630;11.018;2023-04-12T03:51:21;6.73;;;6.33;;
7231;SDS011;3657;49.630;11.018;2023-04-12T03:53:50;5.23;;;5.03;;
7231;SDS011;3657;49.630;11.018;2023-04-12T03:56:17;4.77;;;4.47;;
7231;SDS011;3657;49.630;11.018;2023-04-12T03:58:44;4.97;;;4.77;;
7231;SDS011;3657;49.630;11.018;2023-04-12T04:01:12;5.33;;;5.00;;
7231;SDS011;3657;49.630;11.018;2023-04-12T04:03:42;5.53;;;5.33;;
7231;SDS011;3657;49.630;11.018;2023-04-12T04:06:09;5.17;;;4.87;;
7231;SDS011;3657;49.630;11.018;2023-04-12T04:08:36;5.13;;;4.90;;
7231;SDS011;3657;49.630;11.018;2023-04-12T04:11:03;4.77;;;4.47;;
7231;SDS011;3657;49.630;11.018;2023-04-12T04:13:30;5.50;;;5.17;;
7231;SDS011;3657;49.630;11.018;2023-04-12T04:15:58;5.40;;;5.00;;
7231;SDS011;3657;49.630;11.018;2023-04-12T04:18:29;5.10;;;4.90;;
7231;SDS011;3657;49.630;11.018;2023-04-12T04:20:55;5.57;;;5.20;;
7231;SDS011;3657;49.630;11.018;2023-04-12T04:23:22;5.20;;;5.00;;
7231;SDS011;3657;49.630;11.018;2023-04-12T04:25:49;5.53;;;4.90;;
7231;SDS011;3657;49.630;11.018;2023-04-12T04:28:17;6.23;;;5.57;;
7231;SDS011;3657;49.630;11.018;2023-04-12T04:30:44;5.63;;;5.30;;
7231;SDS011;3657;49.630;11.018;2023-04-12T04:33:11;5.30;;;5.10;;
7231;SDS011;3657;49.630;11.018;2023-04-12T04:35:39;5.53;;;5.23;;
7231;SDS011;3657;49.630;11.018;2023-04-12T04:38:06;6.07;;;5.73;;
7231;SDS011;3657;49.630;11.018;2023-04-12T04:40:35;5.30;;;4.93;;
7231;SDS011;3657;49.630;11.018;2023-04-12T04:43:02;5.60;;;5.27;;
7231;SDS011;3657;49.630;11.018;2023-04-12T04:45:29;5.93;;;5.53;;
7231;SDS011;3657;49.630;11.018;2023-04-12T04:47:56;6.57;;;6.17;;
7231;SDS011;3657;49.630;11.018;2023-04-12T04:50:23;5.87;;;5.57;;
7231;SDS011;3657;49.630;11.018;2023-04-12T04:52:53;5.23;;;5.03;;
7231;SDS011;3657;49.630;11.018;2023-04-12T04:55:20;5.93;;;5.70;;
7231;SDS011;3657;49.630;11.018;2023-04-12T04:57:48;6.27;;;5.00;;
7231;SDS011;3657;49.630;11.018;2023-04-12T05:00:15;6.97;;;6.37;;
7231;SDS011;3657;49.630;11.018;2023-04-12T05:02:42;6.27;;;5.87;;
7231;SDS011;3657;49.630;11.018;2023-04-12T05:05:10;6.47;;;6.13;;
7231;SDS011;3657;49.630;11.018;2023-04-12T05:07:37;7.60;;;6.70;;
7231;SDS011;3657;49.630;11.018;2023-04-12T05:10:06;5.77;;;5.57;;
7231;SDS011;3657;49.630;11.018;2023-04-12T05:12:34;5.40;;;5.10;;
7231;SDS011;3657;49.630;11.018;2023-04-12T05:15:00;5.57;;;5.33;;
7231;SDS011;3657;49.630;11.018;2023-04-12T05:17:27;6.33;;;5.93;;
7231;SDS011;3657;49.630;11.018;2023-04-12T05:19:54;6.60;;;6.00;;
7231;SDS011;3657;49.630;11.018;2023-04-12T05:22:21;7.00;;;6.60;;
7231;SDS011;3657;49.630;11.018;2023-04-12T05:24:47;6.13;;;5.83;;
7231;SDS011;3657;49.630;11.018;2023-04-12T05:27:15;7.13;;;6.73;;
7231;SDS011;3657;49.630;11.018;2023-04-12T05:29:43;5.97;;;5.63;;
7231;SDS011;3657;49.630;11.018;2023-04-12T05:32:10;6.07;;;5.77;;
7231;SDS011;3657;49.630;11.018;2023-04-12T05:34:36;5.80;;;5.50;;
7231;SDS011;3657;49.630;11.018;2023-04-12T05:37:03;7.10;;;6.70;;
7231;SDS011;3657;49.630;11.018;2023-04-12T05:39:30;5.60;;;5.30;;
7231;SDS011;3657;49.630;11.018;2023-04-12T05:41:58;7.20;;;6.80;;
7231;SDS011;3657;49.630;11.018;2023-04-12T05:44:26;5.53;;;5.27;;
7231;SDS011;3657;49.630;11.018;2023-04-12T05:46:53;6.63;;;6.37;;
7231;SDS011;3657;49.630;11.018;2023-04-12T05:49:19;6.83;;;6.53;;
7231;SDS011;3657;49.630;11.018;2023-04-12T05:51:46;7.30;;;6.80;;
7231;SDS011;3657;49.630;11.018;2023-04-12T05:54:13;5.90;;;5.60;;
7231;SDS011;3657;49.630;11.018;2023-04-12T05:56:39;6.00;;;5.57;;
7231;SDS011;3657;49.630;11.018;2023-04-12T05:59:06;6.20;;;5.90;;
7231;SDS011;3657;49.630;11.018;2023-04-12T06:01:35;5.50;;;5.03;;
7231;SDS011;3657;49.630;11.018;2023-04-12T06:04:06;5.77;;;5.47;;
7231;SDS011;3657;49.630;11.018;2023-04-12T06:06:33;6.63;;;6.23;;
7231;SDS011;3657;49.630;11.018;2023-04-12T06:09:00;6.60;;;6.30;;
7231;SDS011;3657;49.630;11.018;2023-04-12T06:11:28;7.03;;;6.63;;
7231;SDS011;3657;49.630;11.018;2023-04-12T06:13:55;6.00;;;5.80;;
7231;SDS011;3657;49.630;11.018;2023-04-12T06:16:22;6.67;;;6.33;;
7231;SDS011;3657;49.630;11.018;2023-04-12T06:18:50;6.33;;;6.03;;
7231;SDS011;3657;49.630;11.018;2023-04-12T06:21:17;5.87;;;5.67;;
7231;SDS011;3657;49.630;11.018;2023-04-12T06:23:44;6.87;;;6.30;;
7231;SDS011;3657;49.630;11.018;2023-04-12T06:26:10;5.83;;;5.53;;
7231;SDS011;3657;49.630;11.018;2023-04-12T06:28:37;6.10;;;5.90;;
7231;SDS011;3657;49.630;11.018;2023-04-12T06:31:04;7.33;;;6.73;;
7231;SDS011;3657;49.630;11.018;2023-04-12T06:33:31;5.77;;;5.27;;
7231;SDS011;3657;49.630;11.018;2023-04-12T06:35:59;7.17;;;6.97;;
7231;SDS011;3657;49.630;11.018;2023-04-12T06:38:25;6.27;;;5.97;;
7231;SDS011;3657;49.630;11.018;2023-04-12T06:40:52;7.17;;;6.77;;
7231;SDS011;3657;49.630;11.018;2023-04-12T06:43:19;6.60;;;6.40;;
7231;SDS011;3657;49.630;11.018;2023-04-12T06:45:47;7.13;;;6.70;;
7231;SDS011;3657;49.630;11.018;2023-04-12T06:48:14;6.87;;;6.47;;
7231;SDS011;3657;49.630;11.018;2023-04-12T06:50:41;6.57;;;6.33;;
7231;SDS011;3657;49.630;11.018;2023-04-12T06:53:09;7.03;;;6.63;;
7231;SDS011;3657;49.630;11.018;2023-04-12T06:55:37;7.07;;;6.57;;
7231;SDS011;3657;49.630;11.018;2023-04-12T06:58:04;8.40;;;7.73;;
7231;SDS011;3657;49.630;11.018;2023-04-12T07:00:30;6.30;;;6.00;;
7231;SDS011;3657;49.630;11.018;2023-04-12T07:02:57;7.10;;;6.50;;
7231;SDS011;3657;49.630;11.018;2023-04-12T07:05:24;7.77;;;7.30;;
7231;SDS011;3657;49.630;11.018;2023-04-12T07:07:50;6.40;;;6.00;;
7231;SDS011;3657;49.630;11.018;2023-04-12T07:10:18;7.33;;;6.90;;
7231;SDS011;3657;49.630;11.018;2023-04-12T07:12:45;6.80;;;6.40;;
7231;SDS011;3657;49.630;11.018;2023-04-12T07:15:11;6.17;;;5.87;;
7231;SDS011;3657;49.630;11.018;2023-04-12T07:17:38;7.27;;;6.87;;
7231;SDS011;3657;49.630;11.018;2023-04-12T07:20:05;7.30;;;6.80;;
7231;SDS011;3657;49.630;11.018;2023-04-12T07:22:32;7.93;;;7.60;;
7231;SDS011;3657;49.630;11.018;2023-04-12T07:24:59;5.93;;;5.63;;
7231;SDS011;3657;49.630;11.018;2023-04-12T07:27:27;7.37;;;7.03;;
7231;SDS011;3657;49.630;11.018;2023-04-12T07:29:53;6.63;;;6.27;;
7231;SDS011;3657;49.630;11.018;2023-04-12T07:32:22;6.50;;;6.20;;
7231;SDS011;3657;49.630;11.018;2023-04-12T07:34:48;5.87;;;5.67;;
7231;SDS011;3657;49.630;11.018;2023-04-12T07:37:15;5.73;;;5.53;;
7231;SDS011;3657;49.630;11.018;2023-04-12T07:39:43;6.50;;;6.20;;
7231;SDS011;3657;49.630;11.018;2023-04-12T07:42:09;5.57;;;5.27;;
7231;SDS011;3657;49.630;11.018;2023-04-12T07:44:37;6.03;;;5.83;;
7231;SDS011;3657;49.630;11.018;2023-04-12T07:47:04;6.00;;;5.70;;
7231;SDS011;3657;49.630;11.018;2023-04-12T07:49:31;5.60;;;5.40;;
7231;SDS011;3657;49.630;11.018;2023-04-12T07:51:57;6.37;;;6.10;;
7231;SDS011;3657;49.630;11.018;2023-04-12T07:54:25;7.17;;;6.87;;
7231;SDS011;3657;49.630;11.018;2023-04-12T07:56:59;6.83;;;6.53;;
7231;SDS011;3657;49.630;11.018;2023-04-12T07:59:26;6.40;;;6.20;;
7231;SDS011;3657;49.630;11.018;2023-04-12T08:01:54;7.37;;;7.07;;
7231;SDS011;3657;49.630;11.018;2023-04-12T08:04:21;6.47;;;6.27;;
7231;SDS011;3657;49.630;11.018;2023-04-12T08:06:48;7.87;;;7.57;;
7231;SDS011;3657;49.630;11.018;2023-04-12T08:09:14;8.90;;;8.40;;
7231;SDS011;3657;49.630;11.018;2023-04-12T08:11:41;8.40;;;7.87;;
7231;SDS011;3657;49.630;11.018;2023-04-12T08:14:08;7.60;;;7.20;;
7231;SDS011;3657;49.630;11.018;2023-04-12T08:16:35;7.87;;;7.57;;
7231;SDS011;3657;49.630;11.018;2023-04-12T08:19:03;7.57;;;7.07;;
7231;SDS011;3657;49.630;11.018;2023-04-12T08:21:29;9.17;;;8.77;;
7231;SDS011;3657;49.630;11.018;2023-04-12T08:23:56;8.10;;;7.80;;
7231;SDS011;3657;49.630;11.018;2023-04-12T08:26:23;7.03;;;6.83;;
7231;SDS011;3657;49.630;11.018;2023-04-12T08:28:51;8.80;;;8.33;;
7231;SDS011;3657;49.630;11.018;2023-04-12T08:31:17;8.20;;;7.67;;
7231;SDS011;3657;49.630;11.018;2023-04-12T08:33:44;7.93;;;7.63;;
7231;SDS011;3657;49.630;11.018;2023-04-12T08:36:12;7.90;;;7.60;;
7231;SDS011;3657;49.630;11.018;2023-04-12T08:38:39;8.00;;;7.70;;
7231;SDS011;3657;49.630;11.018;2023-04-12T08:41:06;8.00;;;7.70;;
7231;SDS011;3657;49.630;11.018;2023-04-12T08:43:33;8.33;;;7.73;;
7231;SDS011;3657;49.630;11.018;2023-04-12T08:46:01;7.97;;;7.67;;
7231;SDS011;3657;49.630;11.018;2023-04-12T08:48:28;8.27;;;7.87;;
7231;SDS011;3657;49.630;11.018;2023-04-12T08:50:55;8.90;;;8.30;;
7231;SDS011;3657;49.630;11.018;2023-04-12T08:53:23;8.37;;;7.97;;
7231;SDS011;3657;49.630;11.018;2023-04-12T08:55:50;7.70;;;7.50;;
7231;SDS011;3657;49.630;11.018;2023-04-12T08:58:17;7.70;;;7.50;;
7231;SDS011;3657;49.630;11.018;2023-04-12T09:00:44;8.33;;;7.97;;
7231;SDS011;3657;49.630;11.018;2023-04-12T09:03:12;8.57;;;8.17;;
7231;SDS011;3657;49.630;11.018;2023-04-12T09:05:38;7.20;;;6.87;;
7231;SDS011;3657;49.630;11.018;2023-04-12T09:08:05;7.47;;;7.17;;
7231;SDS011;3657;49.630;11.018;2023-04-12T09:10:34;7.73;;;7.43;;
7231;SDS011;3657;49.630;11.018;2023-04-12T09:13:02;7.67;;;7.37;;
7231;SDS011;3657;49.630;11.018;2023-04-12T09:15:29;7.33;;;7.03;;
7231;SDS011;3657;49.630;11.018;2023-04-12T09:18:03;6.90;;;6.70;;
7231;SDS011;3657;49.630;11.018;2023-04-12T09:20:31;6.87;;;6.67;;
7231;SDS011;3657;49.630;11.018;2023-04-12T09:22:58;6.93;;;6.63;;
7231;SDS011;3657;49.630;11.018;2023-04-12T09:25:37;6.87;;;6.67;;
7231;SDS011;3657;49.630;11.018;2023-04-12T09:28:19;6.60;;;6.30;;
7231;SDS011;3657;49.630;11.018;2023-04-12T09:30:47;6.20;;;6.00;;
7231;SDS011;3657;49.630;11.018;2023-04-12T09:33:17;6.83;;;6.53;;
7231;SDS011;3657;49.630;11.018;2023-04-12T09:35:44;5.27;;;5.07;;
7231;SDS011;3657;49.630;11.018;2023-04-12T09:38:11;5.87;;;5.57;;
7231;SDS011;3657;49.630;11.018;2023-04-12T09:40:40;6.30;;;6.00;;
7231;SDS011;3657;49.630;11.018;2023-04-12T09:43:06;6.43;;;6.23;;
7231;SDS011;3657;49.630;11.018;2023-04-12T09:45:34;5.47;;;5.27;;
7231;SDS011;3657;49.630;11.018;2023-04-12T09:48:03;5.50;;;5.30;;
7231;SDS011;3657;49.630;11.018;2023-04-12T09:50:30;5.33;;;5.17;;
7231;SDS011;3657;49.630;11.018;2023-04-12T09:52:58;5.63;;;5.43;;
7231;SDS011;3657;49.630;11.018;2023-04-12T09:55:26;5.27;;;5.07;;
7231;SDS011;3657;49.630;11.018;2023-04-12T09:57:56;6.67;;;6.33;;
7231;SDS011;3657;49.630;11.018;2023-04-12T10:00:26;5.87;;;5.57;;
7231;SDS011;3657;49.630;11.018;2023-04-12T10:02:55;5.53;;;5.30;;
7231;SDS011;3657;49.630;11.018;2023-04-12T10:05:22;5.90;;;5.60;;
7231;SDS011;3657;49.630;11.018;2023-04-12T10:07:49;5.93;;;5.73;;
7231;SDS011;3657;49.630;11.018;2023-04-12T10:10:17;6.43;;;6.23;;
7231;SDS011;3657;49.630;11.018;2023-04-12T10:12:45;5.60;;;5.40;;
7231;SDS011;3657;49.630;11.018;2023-04-12T10:15:14;5.07;;;4.97;;
7231;SDS011;3657;49.630;11.018;2023-04-12T10:17:42;6.70;;;6.30;;
7231;SDS011;3657;49.630;11.018;2023-04-12T10:20:10;6.10;;;5.90;;
7231;SDS011;3657;49.630;11.018;2023-04-12T10:22:38;6.40;;;6.10;;
7231;SDS011;3657;49.630;11.018;2023-04-12T10:25:08;6.13;;;5.93;;
7231;SDS011;3657;49.630;11.018;2023-04-12T10:27:38;5.37;;;5.17;;
7231;SDS011;3657;49.630;11.018;2023-04-12T10:30:23;6.10;;;5.90;;
7231;SDS011;3657;49.630;11.018;2023-04-12T10:35:53;7.70;;;7.20;;
7231;SDS011;3657;49.630;11.018;2023-04-12T10:38:23;5.77;;;5.43;;
7231;SDS011;3657;49.630;11.018;2023-04-12T10:41:09;5.27;;;5.07;;
7231;SDS011;3657;49.630;11.018;2023-04-12T10:43:37;6.13;;;5.90;;
7231;SDS011;3657;49.630;11.018;2023-04-12T10:46:06;5.30;;;5.10;;
7231;SDS011;3657;49.630;11.018;2023-04-12T10:48:33;6.50;;;6.20;;
7231;SDS011;3657;49.630;11.018;2023-04-12T10:51:16;6.73;;;6.23;;
7231;SDS011;3657;49.630;11.018;2023-04-12T10:53:47;6.43;;;6.03;;
7231;SDS011;3657;49.630;11.018;2023-04-12T10:59:01;6.20;;;6.00;;
7231;SDS011;3657;49.630;11.018;2023-04-12T11:01:30;6.50;;;6.30;;
7231;SDS011;3657;49.630;11.018;2023-04-12T11:04:06;6.33;;;6.13;;
7231;SDS011;3657;49.630;11.018;2023-04-12T11:06:56;5.87;;;5.67;;
7231;SDS011;3657;49.630;11.018;2023-04-12T11:09:27;7.00;;;6.63;;
7231;SDS011;3657;49.630;11.018;2023-04-12T11:11:56;5.47;;;5.27;;
7231;SDS011;3657;49.630;11.018;2023-04-12T11:14:26;5.93;;;5.73;;
7231;SDS011;3657;49.630;11.018;2023-04-12T11:19:49;6.60;;;6.40;;
7231;SDS011;3657;49.630;11.018;2023-04-12T11:22:17;5.57;;;5.37;;
7231;SDS011;3657;49.630;11.018;2023-04-12T11:24:46;6.07;;;5.87;;
7231;SDS011;3657;49.630;11.018;2023-04-12T11:27:14;5.20;;;5.00;;
7231;SDS011;3657;49.630;11.018;2023-04-12T11:29:41;5.40;;;5.20;;
7231;SDS011;3657;49.630;11.018;2023-04-12T11:32:12;5.90;;;5.70;;
7231;SDS011;3657;49.630;11.018;2023-04-12T11:34:41;5.13;;;5.03;;
7231;SDS011;3657;49.630;11.018;2023-04-12T11:37:08;5.80;;;5.60;;
7231;SDS011;3657;49.630;11.018;2023-04-12T11:39:36;5.50;;;5.30;;
7231;SDS011;3657;49.630;11.018;2023-04-12T11:42:04;5.30;;;5.20;;
7231;SDS011;3657;49.630;11.018;2023-04-12T11:44:32;6.23;;;5.80;;
7231;SDS011;3657;49.630;11.018;2023-04-12T11:46:59;5.70;;;5.40;;
7231;SDS011;3657;49.630;11.018;2023-04-12T11:49:26;6.47;;;6.27;;
7231;SDS011;3657;49.630;11.018;2023-04-12T11:52:01;5.70;;;5.50;;
7231;SDS011;3657;49.630;11.018;2023-04-12T11:54:28;6.20;;;6.00;;
7231;SDS011;3657;49.630;11.018;2023-04-12T11:56:55;6.37;;;6.17;;
7231;SDS011;3657;49.630;11.018;2023-04-12T11:59:29;6.20;;;6.00;;
7231;SDS011;3657;49.630;11.018;2023-04-12T12:01:57;5.63;;;5.43;;
7231;SDS011;3657;49.630;11.018;2023-04-12T12:04:24;5.70;;;5.30;;
7231;SDS011;3657;49.630;11.018;2023-04-12T12:06:51;5.90;;;5.70;;
7231;SDS011;3657;49.630;11.018;2023-04-12T12:09:19;6.63;;;6.33;;
7231;SDS011;3657;49.630;11.018;2023-04-12T12:11:46;5.70;;;5.50;;
7231;SDS011;3657;49.630;11.018;2023-04-12T12:14:17;7.23;;;6.93;;
7231;SDS011;3657;49.630;11.018;2023-04-12T12:16:50;6.77;;;6.47;;
7231;SDS011;3657;49.630;11.018;2023-04-12T12:19:25;6.57;;;6.20;;
7231;SDS011;3657;49.630;11.018;2023-04-12T12:21:53;6.80;;;6.50;;
7231;SDS011;3657;49.630;11.018;2023-04-12T12:24:22;7.00;;;6.80;;
7231;SDS011;3657;49.630;11.018;2023-04-12T12:26:49;6.13;;;5.93;;
7231;SDS011;3657;49.630;11.018;2023-04-12T12:29:16;7.00;;;6.80;;
7231;SDS011;3657;49.630;11.018;2023-04-12T12:31:44;6.70;;;6.50;;
7231;SDS011;3657;49.630;11.018;2023-04-12T12:34:13;6.17;;;5.97;;
7231;SDS011;3657;49.630;11.018;2023-04-12T12:36:43;6.30;;;6.10;;
7231;SDS011;3657;49.630;11.018;2023-04-12T12:39:19;7.10;;;6.90;;
7231;SDS011;3657;49.630;11.018;2023-04-12T12:41:53;7.27;;;6.97;;
7231;SDS011;3657;49.630;11.018;2023-04-12T12:44:20;6.93;;;6.67;;
7231;SDS011;3657;49.630;11.018;2023-04-12T12:46:47;6.87;;;6.67;;
7231;SDS011;3657;49.630;11.018;2023-04-12T12:49:13;6.83;;;6.60;;
7231;SDS011;3657;49.630;11.018;2023-04-12T12:51:40;6.73;;;6.53;;
7231;SDS011;3657;49.630;11.018;2023-04-12T12:54:07;7.40;;;7.17;;
7231;SDS011;3657;49.630;11.018;2023-04-12T12:56:33;7.53;;;7.13;;
7231;SDS011;3657;49.630;11.018;2023-04-12T12:59:01;7.83;;;7.53;;
7231;SDS011;3657;49.630;11.018;2023-04-12T13:01:28;6.97;;;6.67;;
7231;SDS011;3657;49.630;11.018;2023-04-12T13:03:55;6.73;;;6.47;;
7231;SDS011;3657;49.630;11.018;2023-04-12T13:06:22;7.10;;;6.80;;
7231;SDS011;3657;49.630;11.018;2023-04-12T13:08:52;7.10;;;6.80;;
7231;SDS011;3657;49.630;11.018;2023-04-12T13:11:19;7.23;;;6.87;;
7231;SDS011;3657;49.630;11.018;2023-04-12T13:13:46;7.50;;;7.10;;
7231;SDS011;3657;49.630;11.018;2023-04-12T13:16:15;6.07;;;5.87;;
7231;SDS011;3657;49.630;11.018;2023-04-12T13:18:41;7.33;;;7.00;;
7231;SDS011;3657;49.630;11.018;2023-04-12T13:21:08;7.03;;;6.73;;
7231;SDS011;3657;49.630;11.018;2023-04-12T13:23:35;7.30;;;7.00;;
7231;SDS011;3657;49.630;11.018;2023-04-12T13:26:02;8.03;;;7.77;;
7231;SDS011;3657;49.630;11.018;2023-04-12T13:28:28;7.37;;;7.07;;
7231;SDS011;3657;49.630;11.018;2023-04-12T13:30:55;8.10;;;7.80;;
7231;SDS011;3657;49.630;11.018;2023-04-12T13:33:23;7.20;;;7.00;;
7231;SDS011;3657;49.630;11.018;2023-04-12T13:35:50;7.03;;;6.83;;
7231;SDS011;3657;49.630;11.018;2023-04-12T13:38:16;8.97;;;8.57;;
7231;SDS011;3657;49.630;11.018;2023-04-12T13:40:43;8.70;;;8.40;;
7231;SDS011;3657;49.630;11.018;2023-04-12T13:43:10;8.87;;;8.43;;
7231;SDS011;3657;49.630;11.018;2023-04-12T13:45:36;8.00;;;7.70;;
7231;SDS011;3657;49.630;11.018;2023-04-12T13:48:03;8.10;;;7.80;;
7231;SDS011;3657;49.630;11.018;2023-04-12T13:50:31;9.10;;;8.80;;
7231;SDS011;3657;49.630;11.018;2023-04-12T13:52:58;8.60;;;8.20;;
7231;SDS011;3657;49.630;11.018;2023-04-12T13:55:25;9.50;;;8.87;;
7231;SDS011;3657;49.630;11.018;2023-04-12T13:57:52;8.47;;;8.17;;
7231;SDS011;3657;49.630;11.018;2023-04-12T14:00:19;8.83;;;8.53;;
7231;SDS011;3657;49.630;11.018;2023-04-12T14:02:46;9.37;;;8.90;;
7231;SDS011;3657;49.630;11.018;2023-04-12T14:05:12;8.47;;;7.97;;
7231;SDS011;3657;49.630;11.018;2023-04-12T14:07:41;11.50;;;11.00;;
7231;SDS011;3657;49.630;11.018;2023-04-12T14:10:08;9.97;;;9.57;;
7231;SDS011;3657;49.630;11.018;2023-04-12T14:12:35;9.00;;;8.60;;
7231;SDS011;3657;49.630;11.018;2023-04-12T14:15:02;8.10;;;7.80;;
7231;SDS011;3657;49.630;11.018;2023-04-12T14:17:29;10.17;;;9.60;;
7231;SDS011;3657;49.630;11.018;2023-04-12T14:19:56;10.77;;;10.27;;
7231;SDS011;3657;49.630;11.018;2023-04-12T14:22:23;10.80;;;10.10;;
7231;SDS011;3657;49.630;11.018;2023-04-12T14:24:51;9.20;;;8.90;;
7231;SDS011;3657;49.630;11.018;2023-04-12T14:27:18;10.47;;;10.00;;
7231;SDS011;3657;49.630;11.018;2023-04-12T14:29:45;9.57;;;9.17;;
7231;SDS011;3657;49.630;11.018;2023-04-12T14:32:11;9.80;;;9.43;;
7231;SDS011;3657;49.630;11.018;2023-04-12T14:34:38;9.27;;;8.87;;
7231;SDS011;3657;49.630;11.018;2023-04-12T14:37:07;9.03;;;8.70;;
7231;SDS011;3657;49.630;11.018;2023-04-12T14:39:34;9.63;;;9.23;;
7231;SDS011;3657;49.630;11.018;2023-04-12T14:42:02;10.23;;;9.73;;
7231;SDS011;3657;49.630;11.018;2023-04-12T14:44:29;9.03;;;8.63;;
7231;SDS011;3657;49.630;11.018;2023-04-12T14:46:56;9.23;;;8.83;;
7231;SDS011;3657;49.630;11.018;2023-04-12T14:49:23;8.80;;;8.40;;
7231;SDS011;3657;49.630;11.018;2023-04-12T14:51:50;10.00;;;9.50;;
7231;SDS011;3657;49.630;11.018;2023-04-12T14:54:16;9.87;;;9.47;;
7231;SDS011;3657;49.630;11.018;2023-04-12T14:56:43;8.97;;;8.57;;
7231;SDS011;3657;49.630;11.018;2023-04-12T14:59:12;8.50;;;8.20;;
7231;SDS011;3657;49.630;11.018;2023-04-12T15:01:39;8.10;;;7.80;;
7231;SDS011;3657;49.630;11.018;2023-04-12T15:04:06;9.03;;;8.70;;
7231;SDS011;3657;49.630;11.018;2023-04-12T15:06:33;8.87;;;8.43;;
7231;SDS011;3657;49.630;11.018;2023-04-12T15:09:06;9.43;;;9.03;;
7231;SDS011;3657;49.630;11.018;2023-04-12T15:11:33;8.20;;;7.87;;
7231;SDS011;3657;49.630;11.018;2023-04-12T15:14:00;8.10;;;7.90;;